Time,TemperatureF,DewpointF,PressureIn,WindDirection,WindDirectionDegrees,WindSpeedMPH,WindSpeedGustMPH,Humidity,HourlyPrecipIn,Conditions,Clouds,dailyrainin,SolarRadiationWatts/m^2,SoftwareType,DateUTC
2013-03-16 00:00:00,32.2,29.3,29.80,NNW,343,9.0,9.0,89,0.00,,,0.00,0,Wunderground v.1.15,2013-03-16 05:00:00,
2013-03-16 00:05:00,32.1,29.2,29.80,NNE,32,9.0,10.0,89,0.00,,,0.00,0,Wunderground v.1.15,2013-03-16 05:05:00,
2013-03-16 00:10:00,31.8,28.9,29.81,NNE,13,11.0,11.0,89,0.00,,,0.00,0,Wunderground v.1.15,2013-03-16 05:10:00,
2013-03-16 00:15:00,31.7,28.8,29.82,North,351,11.0,14.0,89,0.00,,,0.00,0,Wunderground v.1.15,2013-03-16 05:15:00,
2013-03-16 00:21:00,31.4,28.5,29.83,North,5,15.0,15.0,89,0.00,,,0.00,0,Wunderground v.1.15,2013-03-16 05:21:00,
2013-03-16 00:26:00,31.4,28.5,29.83,NNW,340,11.0,17.0,89,0.00,,,0.00,0,Wunderground v.1.15,2013-03-16 05:26:00,
2013-03-16 00:32:00,31.4,28.5,29.84,NNW,327,7.0,13.0,89,0.00,,,0.00,0,Wunderground v.1.15,2013-03-16 05:32:00,
2013-03-16 00:37:00,31.3,28.4,29.84,North,355,10.0,16.0,89,0.00,,,0.00,0,Wunderground v.1.15,2013-03-16 05:37:00,
2013-03-16 00:42:00,31.1,28.2,29.84,NNW,348,20.0,23.0,89,0.00,,,0.00,0,Wunderground v.1.15,2013-03-16 05:42:00,
2013-03-16 00:48:00,30.6,27.7,29.85,North,355,20.0,23.0,89,0.00,,,0.00,0,Wunderground v.1.15,2013-03-16 05:48:00,
2013-03-16 00:53:00,30.3,27.4,29.85,North,360,13.0,21.0,89,0.00,,,0.00,0,Wunderground v.1.15,2013-03-16 05:53:00,
2013-03-16 00:59:00,30.3,27.4,29.85,NNW,342,13.0,21.0,89,0.00,,,0.00,0,Wunderground v.1.15,2013-03-16 05:59:00,
2013-03-16 01:04:00,30.2,27.3,29.86,North,5,15.0,15.0,89,0.00,,,0.00,0,Wunderground v.1.15,2013-03-16 06:04:00,
2013-03-16 01:10:00,30.1,27.3,29.86,North,11,9.0,13.0,89,0.00,,,0.00,0,Wunderground v.1.15,2013-03-16 06:10:00,
2013-03-16 01:15:00,30.1,27.3,29.86,NNW,343,5.0,16.0,89,0.00,,,0.00,0,Wunderground v.1.15,2013-03-16 06:15:00,
2013-03-16 01:20:00,29.6,26.8,29.86,NW,320,15.0,15.0,89,0.00,,,0.00,0,Wunderground v.1.15,2013-03-16 06:20:00,
2013-03-16 01:25:00,29.4,26.6,29.87,NNW,336,18.0,18.0,89,0.00,,,0.00,0,Wunderground v.1.15,2013-03-16 06:25:00,
2013-03-16 01:31:00,29.3,26.5,29.87,NNE,26,13.0,14.0,89,0.00,,,0.00,0,Wunderground v.1.15,2013-03-16 06:31:00,
2013-03-16 01:37:00,29.3,26.5,29.87,North,360,6.0,15.0,89,0.00,,,0.00,0,Wunderground v.1.15,2013-03-16 06:37:00,
2013-03-16 01:42:00,29.3,26.5,29.87,NE,37,6.0,11.0,89,0.00,,,0.00,0,Wunderground v.1.15,2013-03-16 06:42:00,
2013-03-16 01:48:00,29.3,26.5,29.88,NNE,23,11.0,12.0,89,0.00,,,0.00,0,Wunderground v.1.15,2013-03-16 06:48:00,
2013-03-16 01:53:00,29.3,26.5,29.89,North,355,6.0,12.0,89,0.00,,,0.00,0,Wunderground v.1.15,2013-03-16 06:53:00,
2013-03-16 01:58:00,29.4,26.6,29.89,NNW,331,7.0,12.0,89,0.00,,,0.00,0,Wunderground v.1.15,2013-03-16 06:58:00,
2013-03-16 02:03:00,29.4,26.6,29.90,NNW,329,7.0,9.0,89,0.00,,,0.00,0,Wunderground v.1.15,2013-03-16 07:03:00,
2013-03-16 02:08:00,29.6,26.8,29.90,NNW,346,7.0,11.0,89,0.00,,,0.00,0,Wunderground v.1.15,2013-03-16 07:08:00,
2013-03-16 02:13:00,29.6,26.8,29.91,NNW,340,5.0,13.0,89,0.00,,,0.00,0,Wunderground v.1.15,2013-03-16 07:13:00,
2013-03-16 02:18:00,29.5,26.7,29.91,North,5,10.0,17.0,89,0.00,,,0.00,0,Wunderground v.1.15,2013-03-16 07:18:00,
2013-03-16 02:23:00,29.4,26.6,29.91,NW,319,10.0,19.0,89,0.00,,,0.00,0,Wunderground v.1.15,2013-03-16 07:23:00,
2013-03-16 02:28:00,29.4,26.3,29.90,North,355,9.0,19.0,88,0.00,,,0.00,0,Wunderground v.1.15,2013-03-16 07:28:00,
2013-03-16 02:33:00,29.5,26.4,29.90,North,355,15.0,17.0,88,0.00,,,0.00,0,Wunderground v.1.15,2013-03-16 07:33:00,
2013-03-16 02:38:00,29.6,26.5,29.91,NNW,333,13.0,21.0,88,0.00,,,0.00,0,Wunderground v.1.15,2013-03-16 07:38:00,
2013-03-16 02:43:00,29.6,26.5,29.90,North,350,15.0,17.0,88,0.00,,,0.00,0,Wunderground v.1.15,2013-03-16 07:43:00,
2013-03-16 02:48:00,29.5,26.4,29.90,NNW,348,15.0,20.0,88,0.00,,,0.00,0,Wunderground v.1.15,2013-03-16 07:48:00,
2013-03-16 02:53:00,29.4,26.3,29.90,NNW,337,15.0,20.0,88,0.00,,,0.00,0,Wunderground v.1.15,2013-03-16 07:53:00,
2013-03-16 02:58:00,29.4,26.3,29.90,NNW,342,14.0,20.0,88,0.00,,,0.00,0,Wunderground v.1.15,2013-03-16 07:58:00,
2013-03-16 03:03:00,29.4,26.0,29.91,NNW,336,12.0,21.0,87,0.00,,,0.00,0,Wunderground v.1.15,2013-03-16 08:03:00,
2013-03-16 03:08:00,29.2,25.8,29.91,NNW,332,13.0,25.0,87,0.00,,,0.00,0,Wunderground v.1.15,2013-03-16 08:08:00,
2013-03-16 03:13:00,28.9,25.5,29.91,NW,313,12.0,21.0,87,0.00,,,0.00,0,Wunderground v.1.15,2013-03-16 08:13:00,
2013-03-16 03:18:00,29.0,25.6,29.91,NW,326,6.0,21.0,87,0.00,,,0.00,0,Wunderground v.1.15,2013-03-16 08:18:00,
2013-03-16 03:23:00,29.0,25.6,29.91,NNW,340,14.0,14.0,87,0.00,,,0.00,0,Wunderground v.1.15,2013-03-16 08:23:00,
2013-03-16 03:28:00,28.9,25.5,29.92,North,355,19.0,23.0,87,0.00,,,0.00,0,Wunderground v.1.15,2013-03-16 08:28:00,
2013-03-16 03:33:00,28.9,25.2,29.92,NW,319,10.0,16.0,86,0.00,,,0.00,0,Wunderground v.1.15,2013-03-16 08:33:00,
2013-03-16 03:38:00,28.9,25.2,29.93,NNW,346,9.0,20.0,86,0.00,,,0.00,0,Wunderground v.1.15,2013-03-16 08:38:00,
2013-03-16 03:43:00,28.9,25.2,29.93,NNW,342,11.0,18.0,86,0.00,,,0.00,0,Wunderground v.1.15,2013-03-16 08:43:00,
2013-03-16 03:48:00,28.7,25.0,29.92,NW,325,14.0,21.0,86,0.00,,,0.00,0,Wunderground v.1.15,2013-03-16 08:48:00,
2013-03-16 03:53:00,28.7,25.0,29.93,NW,324,14.0,15.0,86,0.00,,,0.00,0,Wunderground v.1.15,2013-03-16 08:53:00,
2013-03-16 03:58:00,28.5,24.8,29.92,NNW,329,10.0,23.0,86,0.00,,,0.00,0,Wunderground v.1.15,2013-03-16 08:58:00,
2013-03-16 04:03:00,28.4,24.7,29.92,NE,34,7.0,20.0,86,0.00,,,0.00,0,Wunderground v.1.15,2013-03-16 09:03:00,
2013-03-16 04:08:00,28.4,24.7,29.92,NNW,345,5.0,20.0,86,0.00,,,0.00,0,Wunderground v.1.15,2013-03-16 09:08:00,
2013-03-16 04:13:00,28.2,24.3,29.92,North,5,13.0,19.0,85,0.00,,,0.00,0,Wunderground v.1.15,2013-03-16 09:13:00,
2013-03-16 04:18:00,28.0,24.1,29.93,North,349,15.0,24.0,85,0.00,,,0.00,0,Wunderground v.1.15,2013-03-16 09:18:00,
2013-03-16 04:23:00,27.9,24.0,29.92,North,355,17.0,24.0,85,0.00,,,0.00,0,Wunderground v.1.15,2013-03-16 09:23:00,
2013-03-16 04:28:00,27.9,24.0,29.92,NW,317,10.0,26.0,85,0.00,,,0.00,0,Wunderground v.1.15,2013-03-16 09:28:00,
2013-03-16 04:33:00,27.9,23.7,29.93,NNW,333,13.0,20.0,84,0.00,,,0.00,0,Wunderground v.1.15,2013-03-16 09:33:00,
2013-03-16 04:38:00,27.8,23.6,29.93,NW,326,13.0,20.0,84,0.00,,,0.00,0,Wunderground v.1.15,2013-03-16 09:38:00,
2013-03-16 04:43:00,27.8,23.6,29.93,NW,312,16.0,19.0,84,0.00,,,0.00,0,Wunderground v.1.15,2013-03-16 09:43:00,
2013-03-16 04:48:00,27.6,23.1,29.93,North,349,12.0,21.0,83,0.00,,,0.00,0,Wunderground v.1.15,2013-03-16 09:48:00,
2013-03-16 04:53:00,27.6,23.1,29.93,North,10,17.0,23.0,83,0.00,,,0.00,0,Wunderground v.1.15,2013-03-16 09:53:00,
2013-03-16 04:58:00,27.5,23.0,29.93,NNW,342,12.0,23.0,83,0.00,,,0.00,0,Wunderground v.1.15,2013-03-16 09:58:00,
2013-03-16 05:03:00,27.5,23.0,29.94,NNW,341,7.0,24.0,83,0.00,,,0.00,0,Wunderground v.1.15,2013-03-16 10:03:00,
2013-03-16 05:08:00,27.3,22.5,29.95,NNW,342,10.0,24.0,82,0.00,,,0.00,0,Wunderground v.1.15,2013-03-16 10:08:00,
2013-03-16 05:13:00,27.0,21.7,29.95,North,11,13.0,26.0,80,0.00,,,0.00,0,Wunderground v.1.15,2013-03-16 10:13:00,
2013-03-16 05:18:00,26.9,21.6,29.95,NNW,343,22.0,27.0,80,0.00,,,0.00,0,Wunderground v.1.15,2013-03-16 10:18:00,
2013-03-16 05:23:00,26.9,21.6,29.96,NNW,327,8.0,22.0,80,0.00,,,0.00,0,Wunderground v.1.15,2013-03-16 10:23:00,
2013-03-16 05:28:00,26.8,21.5,29.96,North,355,19.0,22.0,80,0.00,,,0.00,0,Wunderground v.1.15,2013-03-16 10:28:00,
2013-03-16 05:33:00,26.7,21.7,29.95,North,9,10.0,17.0,81,0.00,,,0.00,0,Wunderground v.1.15,2013-03-16 10:33:00,
2013-03-16 05:38:00,26.5,21.5,29.95,NNW,339,8.0,22.0,81,0.00,,,0.00,0,Wunderground v.1.15,2013-03-16 10:38:00,
2013-03-16 05:43:00,26.3,21.6,29.95,North,355,13.0,21.0,82,0.00,,,0.00,0,Wunderground v.1.15,2013-03-16 10:43:00,
2013-03-16 05:48:00,26.1,21.6,29.95,North,5,16.0,26.0,83,0.00,,,0.00,0,Wunderground v.1.15,2013-03-16 10:48:00,
2013-03-16 05:53:00,25.9,21.4,29.95,North,355,15.0,23.0,83,0.00,,,0.00,0,Wunderground v.1.15,2013-03-16 10:53:00,
2013-03-16 05:58:00,25.7,21.3,29.96,North,9,14.0,24.0,83,0.00,,,0.00,0,Wunderground v.1.15,2013-03-16 10:58:00,
2013-03-16 06:03:00,25.6,21.4,29.96,North,355,8.0,16.0,84,0.00,,,0.00,0,Wunderground v.1.15,2013-03-16 11:03:00,
2013-03-16 06:08:00,25.5,21.3,29.96,North,5,8.0,17.0,84,0.00,,,0.00,0,Wunderground v.1.15,2013-03-16 11:08:00,
2013-03-16 06:13:00,25.3,21.1,29.95,NNE,19,13.0,20.0,84,0.00,,,0.00,0,Wunderground v.1.15,2013-03-16 11:13:00,
2013-03-16 06:18:00,25.2,21.0,29.96,North,360,19.0,23.0,84,0.00,,,0.00,0,Wunderground v.1.15,2013-03-16 11:18:00,
2013-03-16 06:23:00,24.9,21.0,29.96,North,11,20.0,24.0,85,0.00,,,0.00,0,Wunderground v.1.15,2013-03-16 11:23:00,
2013-03-16 06:28:00,24.4,20.3,29.96,NNW,348,7.0,24.0,84,0.00,,,0.00,0,Wunderground v.1.15,2013-03-16 11:28:00,
2013-03-16 06:33:00,24.0,19.9,29.96,NNW,345,20.0,25.0,84,0.00,,,0.00,0,Wunderground v.1.15,2013-03-16 11:33:00,
2013-03-16 06:38:00,23.8,19.7,29.98,North,351,15.0,25.0,84,0.00,,,0.00,0,Wunderground v.1.15,2013-03-16 11:38:00,
2013-03-16 06:43:00,23.5,19.7,29.99,NNW,339,17.0,29.0,85,0.00,,,0.00,0,Wunderground v.1.15,2013-03-16 11:43:00,
2013-03-16 06:48:00,23.3,19.5,29.99,North,9,17.0,29.0,85,0.00,,,0.00,0,Wunderground v.1.15,2013-03-16 11:48:00,
2013-03-16 06:53:00,23.3,19.5,29.99,North,355,20.0,21.0,85,0.00,,,0.00,0,Wunderground v.1.15,2013-03-16 11:53:00,
2013-03-16 06:58:00,23.0,19.2,30.00,North,5,14.0,28.0,85,0.00,,,0.00,0,Wunderground v.1.15,2013-03-16 11:58:00,
2013-03-16 07:03:00,22.9,19.1,30.01,North,360,8.0,21.0,85,0.00,,,0.00,0,Wunderground v.1.15,2013-03-16 12:03:00,
2013-03-16 07:08:00,22.7,18.9,30.01,North,5,14.0,21.0,85,0.00,,,0.00,0,Wunderground v.1.15,2013-03-16 12:08:00,
2013-03-16 07:13:00,22.7,18.9,30.01,NNW,341,15.0,24.0,85,0.00,,,0.00,0,Wunderground v.1.15,2013-03-16 12:13:00,
2013-03-16 07:18:00,22.8,19.0,30.01,NNW,348,10.0,24.0,85,0.00,,,0.00,0,Wunderground v.1.15,2013-03-16 12:18:00,
2013-03-16 07:24:00,22.7,18.9,30.02,North,355,10.0,15.0,85,0.00,,,0.00,0,Wunderground v.1.15,2013-03-16 12:24:00,
2013-03-16 07:29:00,22.5,18.7,30.02,NNW,347,8.0,18.0,85,0.00,,,0.00,0,Wunderground v.1.15,2013-03-16 12:29:00,
2013-03-16 07:34:00,22.3,18.5,30.02,NNE,13,18.0,21.0,85,0.00,,,0.00,0,Wunderground v.1.15,2013-03-16 12:34:00,
2013-03-16 07:38:00,22.1,18.3,30.02,North,355,11.0,21.0,85,0.00,,,0.00,0,Wunderground v.1.15,2013-03-16 12:38:00,
2013-03-16 07:43:00,22.0,18.5,30.03,NNW,344,15.0,16.0,86,0.00,,,0.00,0,Wunderground v.1.15,2013-03-16 12:43:00,
2013-03-16 07:48:00,21.8,18.3,30.03,North,351,12.0,20.0,86,0.00,,,0.00,0,Wunderground v.1.15,2013-03-16 12:48:00,
2013-03-16 07:54:00,21.8,18.3,30.04,NNE,12,9.0,19.0,86,0.00,,,0.00,0,Wunderground v.1.15,2013-03-16 12:54:00,
2013-03-16 07:59:00,21.8,18.3,30.04,North,355,9.0,19.0,86,0.00,,,0.00,0,Wunderground v.1.15,2013-03-16 12:59:00,
2013-03-16 08:04:00,21.7,18.2,30.05,NNW,343,6.0,16.0,86,0.00,,,0.00,7,Wunderground v.1.15,2013-03-16 13:04:00,
2013-03-16 08:09:00,21.7,18.2,30.05,NNW,337,13.0,13.0,86,0.00,,,0.00,14,Wunderground v.1.15,2013-03-16 13:09:00,
2013-03-16 08:14:00,21.8,18.3,30.05,North,349,8.0,18.0,86,0.00,,,0.00,19,Wunderground v.1.15,2013-03-16 13:14:00,
2013-03-16 08:19:00,21.9,18.4,30.04,North,5,11.0,14.0,86,0.00,,,0.00,25,Wunderground v.1.15,2013-03-16 13:19:00,
2013-03-16 08:24:00,21.8,18.0,30.04,North,5,9.0,21.0,85,0.00,,,0.00,32,Wunderground v.1.15,2013-03-16 13:24:00,
2013-03-16 08:29:00,21.7,17.9,30.04,NNE,13,13.0,13.0,85,0.00,,,0.00,32,Wunderground v.1.15,2013-03-16 13:29:00,
2013-03-16 08:34:00,21.6,17.8,30.04,North,9,9.0,21.0,85,0.00,,,0.00,35,Wunderground v.1.15,2013-03-16 13:34:00,
2013-03-16 08:39:00,21.4,17.6,30.04,North,355,9.0,16.0,85,0.00,,,0.00,30,Wunderground v.1.15,2013-03-16 13:39:00,
2013-03-16 08:44:00,21.3,17.2,30.04,North,355,11.0,19.0,84,0.00,,,0.00,37,Wunderground v.1.15,2013-03-16 13:44:00,
2013-03-16 08:49:00,21.3,17.2,30.04,NNE,18,12.0,16.0,84,0.00,,,0.00,69,Wunderground v.1.15,2013-03-16 13:49:00,
2013-03-16 08:54:00,21.3,17.2,30.04,North,355,10.0,22.0,84,0.00,,,0.00,67,Wunderground v.1.15,2013-03-16 13:54:00,
2013-03-16 08:59:00,21.4,17.3,30.04,North,360,16.0,17.0,84,0.00,,,0.00,91,Wunderground v.1.15,2013-03-16 13:59:00,
2013-03-16 09:04:00,21.4,17.3,30.04,North,360,12.0,16.0,84,0.00,,,0.00,137,Wunderground v.1.15,2013-03-16 14:04:00,
2013-03-16 09:09:00,21.4,17.3,30.03,NNW,341,20.0,20.0,84,0.00,,,0.00,70,Wunderground v.1.15,2013-03-16 14:09:00,
2013-03-16 09:14:00,21.2,17.1,30.03,NNW,344,12.0,20.0,84,0.00,,,0.00,86,Wunderground v.1.15,2013-03-16 14:14:00,
2013-03-16 09:19:00,21.0,16.9,30.04,NNW,347,18.0,20.0,84,0.00,,,0.00,93,Wunderground v.1.15,2013-03-16 14:19:00,
2013-03-16 09:24:00,21.1,17.0,30.04,North,355,13.0,18.0,84,0.00,,,0.00,91,Wunderground v.1.15,2013-03-16 14:24:00,
2013-03-16 09:29:00,21.1,17.0,30.04,North,355,8.0,22.0,84,0.00,,,0.00,70,Wunderground v.1.15,2013-03-16 14:29:00,
2013-03-16 09:35:00,21.0,16.9,30.05,NNW,344,10.0,22.0,84,0.00,,,0.00,120,Wunderground v.1.15,2013-03-16 14:35:00,
2013-03-16 09:40:00,20.8,16.7,30.04,NNW,345,16.0,23.0,84,0.00,,,0.00,100,Wunderground v.1.15,2013-03-16 14:40:00,
2013-03-16 09:45:00,20.7,16.6,30.03,NNW,342,9.0,19.0,84,0.00,,,0.00,142,Wunderground v.1.15,2013-03-16 14:45:00,
2013-03-16 09:50:00,20.7,16.6,30.04,North,5,11.0,20.0,84,0.00,,,0.00,156,Wunderground v.1.15,2013-03-16 14:50:00,
2013-03-16 09:55:00,20.9,16.8,30.04,NNE,16,15.0,22.0,84,0.00,,,0.00,311,Wunderground v.1.15,2013-03-16 14:55:00,
2013-03-16 10:00:00,21.0,16.6,30.04,NNW,348,12.0,22.0,83,0.00,,,0.00,244,Wunderground v.1.15,2013-03-16 15:00:00,
2013-03-16 10:05:00,20.7,16.4,30.04,North,5,9.0,23.0,83,0.00,,,0.00,120,Wunderground v.1.15,2013-03-16 15:05:00,
2013-03-16 10:10:00,20.7,16.4,30.05,North,355,11.0,23.0,83,0.00,,,0.00,167,Wunderground v.1.15,2013-03-16 15:10:00,
2013-03-16 10:15:00,21.0,16.6,30.05,NE,37,7.0,17.0,83,0.00,,,0.00,207,Wunderground v.1.15,2013-03-16 15:15:00,
2013-03-16 10:20:00,21.2,16.8,30.05,North,355,17.0,17.0,83,0.00,,,0.00,225,Wunderground v.1.15,2013-03-16 15:20:00,
2013-03-16 10:25:00,21.5,17.1,30.05,NW,325,13.0,17.0,83,0.00,,,0.00,239,Wunderground v.1.15,2013-03-16 15:25:00,
2013-03-16 10:30:00,21.7,17.3,30.05,NE,35,7.0,10.0,83,0.00,,,0.00,262,Wunderground v.1.15,2013-03-16 15:30:00,
2013-03-16 10:35:00,21.8,17.2,30.05,NE,37,6.0,16.0,82,0.00,,,0.00,241,Wunderground v.1.15,2013-03-16 15:35:00,
2013-03-16 10:40:00,21.4,16.8,30.05,NNE,15,10.0,11.0,82,0.00,,,0.00,408,Wunderground v.1.15,2013-03-16 15:40:00,
2013-03-16 10:45:00,22.3,17.6,30.05,North,11,11.0,23.0,82,0.00,,,0.00,480,Wunderground v.1.15,2013-03-16 15:45:00,
2013-03-16 10:50:00,22.5,17.3,30.05,NNE,24,20.0,22.0,80,0.00,,,0.00,374,Wunderground v.1.15,2013-03-16 15:50:00,
2013-03-16 10:55:00,22.1,16.6,30.06,NNW,341,12.0,22.0,79,0.00,,,0.00,318,Wunderground v.1.15,2013-03-16 15:55:00,
2013-03-16 11:00:00,22.0,16.5,30.06,NNE,17,9.0,13.0,79,0.00,,,0.00,378,Wunderground v.1.15,2013-03-16 16:00:00,
2013-03-16 11:05:00,22.3,16.8,30.06,North,9,10.0,19.0,79,0.00,,,0.00,388,Wunderground v.1.15,2013-03-16 16:05:00,
2013-03-16 11:10:00,22.4,16.6,30.06,North,5,8.0,11.0,78,0.00,,,0.00,385,Wunderground v.1.15,2013-03-16 16:10:00,
2013-03-16 11:15:00,23.1,17.0,30.07,NNW,341,12.0,22.0,77,0.00,,,0.00,561,Wunderground v.1.15,2013-03-16 16:15:00,
2013-03-16 11:20:00,22.9,16.5,30.08,NNW,336,9.0,11.0,76,0.00,,,0.00,564,Wunderground v.1.15,2013-03-16 16:20:00,
2013-03-16 11:25:00,23.5,16.7,30.07,North,360,11.0,17.0,75,0.00,,,0.00,483,Wunderground v.1.15,2013-03-16 16:25:00,
2013-03-16 11:30:00,23.7,16.9,30.07,ENE,62,10.0,11.0,75,0.00,,,0.00,541,Wunderground v.1.15,2013-03-16 16:30:00,
2013-03-16 11:35:00,23.8,16.7,30.07,North,5,10.0,17.0,74,0.00,,,0.00,519,Wunderground v.1.15,2013-03-16 16:35:00,
2013-03-16 11:40:00,24.3,17.2,30.07,NNE,15,9.0,11.0,74,0.00,,,0.00,585,Wunderground v.1.15,2013-03-16 16:40:00,
2013-03-16 11:45:00,24.5,16.8,30.07,North,360,11.0,18.0,72,0.00,,,0.00,626,Wunderground v.1.15,2013-03-16 16:45:00,
2013-03-16 11:50:00,24.4,16.7,30.08,NNW,336,11.0,12.0,72,0.00,,,0.00,476,Wunderground v.1.15,2013-03-16 16:50:00,
2013-03-16 11:55:00,24.6,16.9,30.08,NW,309,8.0,19.0,72,0.00,,,0.00,633,Wunderground v.1.15,2013-03-16 16:55:00,
2013-03-16 12:00:00,25.1,17.0,30.07,NNE,18,13.0,15.0,71,0.00,,,0.00,545,Wunderground v.1.15,2013-03-16 17:00:00,
2013-03-16 12:05:00,25.7,17.3,30.07,NNE,25,8.0,15.0,70,0.00,,,0.00,520,Wunderground v.1.15,2013-03-16 17:05:00,
2013-03-16 12:10:00,25.3,16.5,30.07,NNW,343,6.0,10.0,69,0.00,,,0.00,624,Wunderground v.1.15,2013-03-16 17:10:00,
2013-03-16 12:15:00,25.6,16.8,30.07,NNW,333,8.0,19.0,69,0.00,,,0.00,603,Wunderground v.1.15,2013-03-16 17:15:00,
2013-03-16 12:20:00,25.3,16.2,30.08,NNW,346,11.0,15.0,68,0.00,,,0.00,547,Wunderground v.1.15,2013-03-16 17:20:00,
2013-03-16 12:25:00,25.3,16.9,30.08,NNW,333,10.0,21.0,70,0.00,,,0.00,599,Wunderground v.1.15,2013-03-16 17:25:00,
2013-03-16 12:30:00,26.3,17.8,30.08,North,5,19.0,19.0,70,0.00,,,0.00,700,Wunderground v.1.15,2013-03-16 17:30:00,
2013-03-16 12:35:00,26.6,17.5,30.08,NNE,26,11.0,19.0,68,0.00,,,0.00,554,Wunderground v.1.15,2013-03-16 17:35:00,
2013-03-16 12:40:00,26.9,17.0,30.07,North,5,15.0,15.0,66,0.00,,,0.00,598,Wunderground v.1.15,2013-03-16 17:40:00,
2013-03-16 12:45:00,26.9,17.4,30.08,NE,41,11.0,15.0,67,0.00,,,0.00,661,Wunderground v.1.15,2013-03-16 17:45:00,
2013-03-16 12:50:00,27.2,16.6,30.08,North,350,8.0,19.0,64,0.00,,,0.00,657,Wunderground v.1.15,2013-03-16 17:50:00,
2013-03-16 12:55:00,27.3,17.1,30.07,NNW,348,7.0,19.0,65,0.00,,,0.00,642,Wunderground v.1.15,2013-03-16 17:55:00,
2013-03-16 13:00:00,26.9,16.7,30.08,North,360,13.0,14.0,65,0.00,,,0.00,649,Wunderground v.1.15,2013-03-16 18:00:00,
2013-03-16 13:05:00,28.1,17.8,30.07,NNE,28,16.0,16.0,65,0.00,,,0.00,605,Wunderground v.1.15,2013-03-16 18:05:00,
2013-03-16 13:10:00,27.7,17.1,30.08,North,355,14.0,18.0,64,0.00,,,0.00,684,Wunderground v.1.15,2013-03-16 18:10:00,
2013-03-16 13:15:00,28.1,17.1,30.07,NNW,346,7.0,18.0,63,0.00,,,0.00,728,Wunderground v.1.15,2013-03-16 18:15:00,
2013-03-16 13:20:00,28.3,16.9,30.07,North,9,9.0,15.0,62,0.00,,,0.00,643,Wunderground v.1.15,2013-03-16 18:20:00,
2013-03-16 13:25:00,28.5,16.7,30.07,NNW,346,10.0,17.0,61,0.00,,,0.00,740,Wunderground v.1.15,2013-03-16 18:25:00,
2013-03-16 13:31:00,28.7,17.7,30.06,NNE,19,6.0,12.0,63,0.00,,,0.00,775,Wunderground v.1.15,2013-03-16 18:31:00,
2013-03-16 13:36:00,28.8,16.6,30.07,North,5,8.0,15.0,60,0.00,,,0.00,724,Wunderground v.1.15,2013-03-16 18:36:00,
2013-03-16 13:41:00,29.7,18.3,30.06,North,5,6.0,10.0,62,0.00,,,0.00,770,Wunderground v.1.15,2013-03-16 18:41:00,
2013-03-16 13:46:00,30.1,17.9,30.05,NNW,334,14.0,14.0,60,0.00,,,0.00,751,Wunderground v.1.15,2013-03-16 18:46:00,
2013-03-16 13:51:00,30.0,17.4,30.05,North,5,9.0,13.0,59,0.00,,,0.00,752,Wunderground v.1.15,2013-03-16 18:51:00,
2013-03-16 13:56:00,30.1,17.9,30.05,NNE,28,15.0,15.0,60,0.00,,,0.00,744,Wunderground v.1.15,2013-03-16 18:56:00,
2013-03-16 14:01:00,30.1,17.5,30.05,NNW,348,10.0,12.0,59,0.00,,,0.00,643,Wunderground v.1.15,2013-03-16 19:01:00,
2013-03-16 14:06:00,30.4,17.8,30.05,North,9,7.0,14.0,59,0.00,,,0.00,740,Wunderground v.1.15,2013-03-16 19:06:00,
2013-03-16 14:11:00,30.6,18.0,30.05,North,5,8.0,9.0,59,0.00,,,0.00,733,Wunderground v.1.15,2013-03-16 19:11:00,
2013-03-16 14:16:00,31.3,17.8,30.05,NNE,32,9.0,13.0,57,0.00,,,0.00,795,Wunderground v.1.15,2013-03-16 19:16:00,
2013-03-16 14:21:00,30.5,17.1,30.05,NE,47,11.0,11.0,57,0.00,,,0.00,538,Wunderground v.1.15,2013-03-16 19:21:00,
2013-03-16 14:27:00,30.6,17.6,30.05,NNW,343,2.0,13.0,58,0.00,,,0.00,446,Wunderground v.1.15,2013-03-16 19:27:00,
2013-03-16 14:32:00,30.5,17.1,30.04,NE,51,10.0,14.0,57,0.00,,,0.00,411,Wunderground v.1.15,2013-03-16 19:32:00,
2013-03-16 14:37:00,30.7,17.7,30.04,NNE,24,4.0,14.0,58,0.00,,,0.00,424,Wunderground v.1.15,2013-03-16 19:37:00,
2013-03-16 14:42:00,31.1,17.6,30.04,North,360,7.0,11.0,57,0.00,,,0.00,450,Wunderground v.1.15,2013-03-16 19:42:00,
2013-03-16 14:47:00,30.9,17.8,30.03,NE,51,7.0,12.0,58,0.00,,,0.00,434,Wunderground v.1.15,2013-03-16 19:47:00,
2013-03-16 14:52:00,31.0,17.5,30.03,NNE,12,7.0,13.0,57,0.00,,,0.00,427,Wunderground v.1.15,2013-03-16 19:52:00,
2013-03-16 14:57:00,31.6,18.1,30.04,NNE,17,9.0,13.0,57,0.00,,,0.00,489,Wunderground v.1.15,2013-03-16 19:57:00,
2013-03-16 15:02:00,31.9,18.4,30.03,ENE,59,9.0,10.0,57,0.00,,,0.00,424,Wunderground v.1.15,2013-03-16 20:02:00,
2013-03-16 15:07:00,31.6,17.7,30.03,NE,41,7.0,13.0,56,0.00,,,0.00,371,Wunderground v.1.15,2013-03-16 20:07:00,
2013-03-16 15:12:00,31.5,17.6,30.03,North,5,4.0,10.0,56,0.00,,,0.00,373,Wunderground v.1.15,2013-03-16 20:12:00,
2013-03-16 15:17:00,31.6,17.7,30.03,NE,42,7.0,12.0,56,0.00,,,0.00,371,Wunderground v.1.15,2013-03-16 20:17:00,
2013-03-16 15:22:00,31.6,17.7,30.03,North,10,6.0,9.0,56,0.00,,,0.00,334,Wunderground v.1.15,2013-03-16 20:22:00,
2013-03-16 15:27:00,31.8,17.9,30.03,NE,34,6.0,13.0,56,0.00,,,0.00,345,Wunderground v.1.15,2013-03-16 20:27:00,
2013-03-16 15:32:00,31.8,17.9,30.03,NNE,33,8.0,14.0,56,0.00,,,0.00,318,Wunderground v.1.15,2013-03-16 20:32:00,
2013-03-16 15:37:00,31.7,17.8,30.03,NNE,24,7.0,14.0,56,0.00,,,0.00,378,Wunderground v.1.15,2013-03-16 20:37:00,
2013-03-16 15:42:00,31.9,18.0,30.03,NNE,24,8.0,11.0,56,0.00,,,0.00,327,Wunderground v.1.15,2013-03-16 20:42:00,
2013-03-16 15:47:00,32.0,18.1,30.03,North,355,8.0,11.0,56,0.00,,,0.00,288,Wunderground v.1.15,2013-03-16 20:47:00,
2013-03-16 15:52:00,32.0,17.6,30.03,North,9,9.0,10.0,55,0.00,,,0.00,250,Wunderground v.1.15,2013-03-16 20:52:00,
2013-03-16 15:57:00,31.9,18.0,30.03,NNE,20,9.0,10.0,56,0.00,,,0.00,211,Wunderground v.1.15,2013-03-16 20:57:00,
2013-03-16 16:02:00,31.8,17.5,30.03,NNE,31,7.0,11.0,55,0.00,,,0.00,176,Wunderground v.1.15,2013-03-16 21:02:00,
2013-03-16 16:07:00,31.5,17.6,30.03,NNE,26,9.0,11.0,56,0.00,,,0.00,155,Wunderground v.1.15,2013-03-16 21:07:00,
2013-03-16 16:12:00,31.4,17.5,30.03,North,10,8.0,8.0,56,0.00,,,0.00,172,Wunderground v.1.15,2013-03-16 21:12:00,
2013-03-16 16:17:00,31.5,18.0,30.03,NNE,30,7.0,11.0,57,0.00,,,0.00,183,Wunderground v.1.15,2013-03-16 21:17:00,
2013-03-16 16:22:00,31.5,18.0,30.03,NE,52,8.0,11.0,57,0.00,,,0.00,178,Wunderground v.1.15,2013-03-16 21:22:00,
2013-03-16 16:27:00,31.6,18.1,30.03,NNE,19,10.0,11.0,57,0.00,,,0.00,183,Wunderground v.1.15,2013-03-16 21:27:00,
2013-03-16 16:33:00,31.4,17.5,30.03,NE,40,12.0,12.0,56,0.00,,,0.00,185,Wunderground v.1.15,2013-03-16 21:33:00,
2013-03-16 16:38:00,31.3,17.4,30.03,NE,35,8.0,12.0,56,0.00,,,0.00,195,Wunderground v.1.15,2013-03-16 21:38:00,
2013-03-16 16:43:00,31.1,17.6,30.03,NNE,20,5.0,9.0,57,0.00,,,0.00,204,Wunderground v.1.15,2013-03-16 21:43:00,
2013-03-16 16:48:00,31.2,17.7,30.03,NNE,19,5.0,9.0,57,0.00,,,0.00,209,Wunderground v.1.15,2013-03-16 21:48:00,
2013-03-16 16:52:00,31.4,17.9,30.03,NE,51,10.0,11.0,57,0.00,,,0.00,227,Wunderground v.1.15,2013-03-16 21:52:00,
2013-03-16 16:57:00,31.4,17.9,30.03,North,5,6.0,11.0,57,0.00,,,0.00,227,Wunderground v.1.15,2013-03-16 21:57:00,
2013-03-16 17:02:00,31.3,17.4,30.03,NE,40,11.0,12.0,56,0.00,,,0.00,223,Wunderground v.1.15,2013-03-16 22:02:00,
2013-03-16 17:07:00,31.3,17.4,30.03,NNE,33,10.0,12.0,56,0.00,,,0.00,211,Wunderground v.1.15,2013-03-16 22:07:00,
2013-03-16 17:12:00,31.2,17.7,30.03,NE,40,8.0,8.0,57,0.00,,,0.00,167,Wunderground v.1.15,2013-03-16 22:12:00,
2013-03-16 17:17:00,31.3,17.8,30.04,North,11,5.0,11.0,57,0.00,,,0.00,141,Wunderground v.1.15,2013-03-16 22:17:00,
2013-03-16 17:22:00,31.2,17.7,30.04,NE,41,6.0,9.0,57,0.00,,,0.00,141,Wunderground v.1.15,2013-03-16 22:22:00,
2013-03-16 17:27:00,31.2,17.7,30.04,NE,34,3.0,9.0,57,0.00,,,0.00,149,Wunderground v.1.15,2013-03-16 22:27:00,
2013-03-16 17:32:00,31.2,17.7,30.04,NNW,346,1.0,6.0,57,0.00,,,0.00,151,Wunderground v.1.15,2013-03-16 22:32:00,
2013-03-16 17:37:00,31.3,17.8,30.04,NNE,19,4.0,9.0,57,0.00,,,0.00,144,Wunderground v.1.15,2013-03-16 22:37:00,
2013-03-16 17:42:00,31.4,17.9,30.04,NE,37,6.0,8.0,57,0.00,,,0.00,141,Wunderground v.1.15,2013-03-16 22:42:00,
2013-03-16 17:47:00,31.3,17.8,30.05,NE,38,5.0,9.0,57,0.00,,,0.00,134,Wunderground v.1.15,2013-03-16 22:47:00,
2013-03-16 17:52:00,31.3,17.8,30.05,North,11,3.0,7.0,57,0.00,,,0.00,114,Wunderground v.1.15,2013-03-16 22:52:00,
2013-03-16 17:58:00,31.1,17.6,30.05,NNE,19,4.0,7.0,57,0.00,,,0.00,113,Wunderground v.1.15,2013-03-16 22:58:00,
2013-03-16 18:03:00,31.1,17.6,30.05,NE,51,4.0,6.0,57,0.00,,,0.00,104,Wunderground v.1.15,2013-03-16 23:03:00,
2013-03-16 18:08:00,31.0,17.9,30.06,NNE,32,2.0,6.0,58,0.00,,,0.00,91,Wunderground v.1.15,2013-03-16 23:08:00,
2013-03-16 18:13:00,31.0,17.9,30.06,North,5,3.0,5.0,58,0.00,,,0.00,77,Wunderground v.1.15,2013-03-16 23:13:00,
2013-03-16 18:18:00,31.0,17.9,30.06,North,5,4.0,6.0,58,0.00,,,0.00,60,Wunderground v.1.15,2013-03-16 23:18:00,
2013-03-16 18:23:00,30.9,17.8,30.06,NE,52,5.0,7.0,58,0.00,,,0.00,49,Wunderground v.1.15,2013-03-16 23:23:00,
2013-03-16 18:28:00,30.7,17.7,30.06,NE,42,4.0,7.0,58,0.00,,,0.00,47,Wunderground v.1.15,2013-03-16 23:28:00,
2013-03-16 18:33:00,30.6,17.6,30.07,NE,36,1.0,5.0,58,0.00,,,0.00,42,Wunderground v.1.15,2013-03-16 23:33:00,
2013-03-16 18:38:00,30.5,17.5,30.06,NE,41,3.0,5.0,58,0.00,,,0.00,39,Wunderground v.1.15,2013-03-16 23:38:00,
2013-03-16 18:43:00,30.5,17.9,30.06,NNE,32,5.0,7.0,59,0.00,,,0.00,32,Wunderground v.1.15,2013-03-16 23:43:00,
2013-03-16 18:48:00,30.4,17.8,30.06,NNE,27,3.0,7.0,59,0.00,,,0.00,30,Wunderground v.1.15,2013-03-16 23:48:00,
2013-03-16 18:53:00,30.3,17.7,30.06,NNE,22,4.0,6.0,59,0.00,,,0.00,28,Wunderground v.1.15,2013-03-16 23:53:00,
2013-03-16 18:58:00,30.3,17.7,30.07,NNE,28,4.0,6.0,59,0.00,,,0.00,26,Wunderground v.1.15,2013-03-16 23:58:00,
2013-03-16 19:03:00,30.2,17.6,30.07,NE,42,5.0,7.0,59,0.00,,,0.00,23,Wunderground v.1.15,2013-03-17 00:03:00,
2013-03-16 19:08:00,30.1,17.5,30.07,NNE,17,5.0,7.0,59,0.00,,,0.00,18,Wunderground v.1.15,2013-03-17 00:08:00,
2013-03-16 19:13:00,30.1,17.5,30.07,NNE,24,4.0,7.0,59,0.00,,,0.00,14,Wunderground v.1.15,2013-03-17 00:13:00,
2013-03-16 19:18:00,30.0,17.8,30.07,NNE,32,6.0,8.0,60,0.00,,,0.00,11,Wunderground v.1.15,2013-03-17 00:18:00,
2013-03-16 19:23:00,30.0,17.8,30.07,NNE,19,6.0,8.0,60,0.00,,,0.00,9,Wunderground v.1.15,2013-03-17 00:23:00,
2013-03-16 19:28:00,30.0,18.2,30.07,NNE,32,4.0,8.0,61,0.00,,,0.00,5,Wunderground v.1.15,2013-03-17 00:28:00,
2013-03-16 19:33:00,29.9,18.1,30.08,NE,34,6.0,6.0,61,0.00,,,0.00,0,Wunderground v.1.15,2013-03-17 00:33:00,
2013-03-16 19:38:00,29.9,18.1,30.08,NNE,27,4.0,7.0,61,0.00,,,0.00,0,Wunderground v.1.15,2013-03-17 00:38:00,
2013-03-16 19:43:00,29.9,18.5,30.08,NNE,19,7.0,8.0,62,0.00,,,0.00,0,Wunderground v.1.15,2013-03-17 00:43:00,
2013-03-16 19:48:00,29.8,18.4,30.08,NNE,18,6.0,8.0,62,0.00,,,0.00,0,Wunderground v.1.15,2013-03-17 00:48:00,
2013-03-16 19:53:00,29.8,18.4,30.08,NE,34,7.0,8.0,62,0.00,,,0.00,0,Wunderground v.1.15,2013-03-17 00:53:00,
2013-03-16 19:58:00,29.7,18.3,30.08,NNE,17,8.0,9.0,62,0.00,,,0.00,0,Wunderground v.1.15,2013-03-17 00:58:00,
2013-03-16 20:03:00,29.6,18.5,30.08,NNE,20,7.0,11.0,63,0.00,,,0.00,0,Wunderground v.1.15,2013-03-17 01:03:00,
2013-03-16 20:08:00,29.6,18.5,30.08,NNE,13,8.0,11.0,63,0.00,,,0.00,0,Wunderground v.1.15,2013-03-17 01:08:00,
2013-03-16 20:13:00,29.4,18.3,30.09,NE,44,7.0,11.0,63,0.00,,,0.00,0,Wunderground v.1.15,2013-03-17 01:13:00,
2013-03-16 20:18:00,29.3,18.3,30.09,NE,43,6.0,11.0,63,0.00,,,0.00,0,Wunderground v.1.15,2013-03-17 01:18:00,
2013-03-16 20:23:00,29.2,18.5,30.09,NE,38,5.0,9.0,64,0.00,,,0.00,0,Wunderground v.1.15,2013-03-17 01:23:00,
2013-03-16 20:28:00,29.2,18.5,30.09,NE,47,9.0,12.0,64,0.00,,,0.00,0,Wunderground v.1.15,2013-03-17 01:28:00,
2013-03-16 20:33:00,29.0,18.3,30.09,NNE,30,9.0,10.0,64,0.00,,,0.00,0,Wunderground v.1.15,2013-03-17 01:33:00,
2013-03-16 20:38:00,28.9,18.2,30.09,NE,40,9.0,12.0,64,0.00,,,0.00,0,Wunderground v.1.15,2013-03-17 01:38:00,
2013-03-16 20:43:00,28.8,18.5,30.10,NNE,32,8.0,11.0,65,0.00,,,0.00,0,Wunderground v.1.15,2013-03-17 01:43:00,
2013-03-16 20:48:00,28.8,18.5,30.09,NE,35,9.0,12.0,65,0.00,,,0.00,0,Wunderground v.1.15,2013-03-17 01:48:00,
2013-03-16 20:53:00,28.7,18.4,30.10,NNE,25,8.0,12.0,65,0.00,,,0.00,0,Wunderground v.1.15,2013-03-17 01:53:00,
2013-03-16 20:58:00,28.5,18.6,30.10,NE,36,11.0,12.0,66,0.00,,,0.00,0,Wunderground v.1.15,2013-03-17 01:58:00,
2013-03-16 21:03:00,28.5,18.6,30.10,ENE,57,10.0,14.0,66,0.00,,,0.00,0,Wunderground v.1.15,2013-03-17 02:03:00,
2013-03-16 21:08:00,28.4,18.5,30.09,NNE,28,11.0,14.0,66,0.00,,,0.00,0,Wunderground v.1.15,2013-03-17 02:08:00,
2013-03-16 21:13:00,28.2,18.3,30.10,NE,40,11.0,12.0,66,0.00,,,0.00,0,Wunderground v.1.15,2013-03-17 02:13:00,
2013-03-16 21:18:00,28.2,18.6,30.10,NNE,22,7.0,14.0,67,0.00,,,0.00,0,Wunderground v.1.15,2013-03-17 02:18:00,
2013-03-16 21:23:00,28.1,18.9,30.11,NNE,29,10.0,13.0,68,0.00,,,0.00,0,Wunderground v.1.15,2013-03-17 02:23:00,
2013-03-16 21:28:00,28.0,18.8,30.10,NE,42,8.0,13.0,68,0.00,,,0.00,0,Wunderground v.1.15,2013-03-17 02:28:00,
2013-03-16 21:33:00,27.8,18.9,30.11,NE,50,10.0,15.0,69,0.00,,,0.00,0,Wunderground v.1.15,2013-03-17 02:33:00,
2013-03-16 21:38:00,27.7,19.2,30.11,NE,46,5.0,15.0,70,0.00,,,0.00,0,Wunderground v.1.15,2013-03-17 02:38:00,
2013-03-16 21:43:00,27.5,19.7,30.11,NE,35,6.0,13.0,72,0.00,,,0.00,0,Wunderground v.1.15,2013-03-17 02:43:00,
2013-03-16 21:48:00,27.3,19.5,30.11,NNE,24,12.0,13.0,72,0.00,,,0.00,0,Wunderground v.1.15,2013-03-17 02:48:00,
2013-03-16 21:53:00,27.1,19.9,30.11,NE,42,13.0,14.0,74,0.00,,,0.00,0,Wunderground v.1.15,2013-03-17 02:53:00,
2013-03-16 21:58:00,26.8,19.9,30.11,NNE,15,9.0,14.0,75,0.00,,,0.00,0,Wunderground v.1.15,2013-03-17 02:58:00,
2013-03-16 22:03:00,26.7,19.8,30.11,NE,38,8.0,12.0,75,0.00,,,0.00,0,Wunderground v.1.15,2013-03-17 03:03:00,
2013-03-16 22:08:00,26.6,20.1,30.10,NE,50,6.0,12.0,76,0.00,,,0.00,0,Wunderground v.1.15,2013-03-17 03:08:00,
2013-03-16 22:13:00,26.4,19.9,30.11,NE,44,9.0,11.0,76,0.00,,,0.00,0,Wunderground v.1.15,2013-03-17 03:13:00,
2013-03-16 22:18:00,26.4,20.2,30.11,NE,52,4.0,11.0,77,0.00,,,0.00,0,Wunderground v.1.15,2013-03-17 03:18:00,
2013-03-16 22:23:00,26.4,20.2,30.10,ENE,71,11.0,12.0,77,0.00,,,0.00,0,Wunderground v.1.15,2013-03-17 03:23:00,
2013-03-16 22:28:00,26.4,20.2,30.11,ENE,78,8.0,12.0,77,0.00,,,0.00,0,Wunderground v.1.15,2013-03-17 03:28:00,
2013-03-16 22:33:00,26.3,20.1,30.11,NE,51,5.0,11.0,77,0.00,,,0.00,0,Wunderground v.1.15,2013-03-17 03:33:00,
2013-03-16 22:38:00,26.4,20.5,30.11,ENE,57,7.0,11.0,78,0.00,,,0.00,0,Wunderground v.1.15,2013-03-17 03:38:00,
2013-03-16 22:43:00,26.4,20.5,30.11,ENE,63,7.0,11.0,78,0.00,,,0.00,0,Wunderground v.1.15,2013-03-17 03:43:00,
2013-03-16 22:48:00,26.4,20.5,30.11,NE,35,5.0,11.0,78,0.00,,,0.00,0,Wunderground v.1.15,2013-03-17 03:48:00,
2013-03-16 22:53:00,26.3,20.7,30.11,ENE,63,8.0,12.0,79,0.00,,,0.00,0,Wunderground v.1.15,2013-03-17 03:53:00,
2013-03-16 22:59:00,26.2,20.6,30.11,NNE,29,9.0,12.0,79,0.00,,,0.00,0,Wunderground v.1.15,2013-03-17 03:59:00,
2013-03-16 23:00:00,26.2,20.6,30.11,NNE,28,9.0,12.0,79,0.00,,,0.00,0,Wunderground v.1.15,2013-03-17 04:00:00,
2013-03-16 23:05:00,26.1,20.8,30.10,ENE,61,4.0,11.0,80,0.00,,,0.00,0,Wunderground v.1.15,2013-03-17 04:05:00,
2013-03-16 23:10:00,26.0,21.0,30.10,ENE,62,7.0,10.0,81,0.00,,,0.00,0,Wunderground v.1.15,2013-03-17 04:10:00,
2013-03-16 23:15:00,25.9,20.9,30.10,NE,55,5.0,11.0,81,0.00,,,0.00,0,Wunderground v.1.15,2013-03-17 04:15:00,
2013-03-16 23:20:00,25.9,21.2,30.09,ENE,71,9.0,11.0,82,0.00,,,0.00,0,Wunderground v.1.15,2013-03-17 04:20:00,
2013-03-16 23:25:00,25.8,21.1,30.10,NE,38,5.0,11.0,82,0.00,,,0.00,0,Wunderground v.1.15,2013-03-17 04:25:00,
2013-03-16 23:30:00,25.9,21.4,30.09,ENE,64,5.0,7.0,83,0.00,,,0.00,0,Wunderground v.1.15,2013-03-17 04:30:00,
2013-03-16 23:35:00,25.9,21.4,30.09,ENE,72,12.0,12.0,83,0.00,,,0.00,0,Wunderground v.1.15,2013-03-17 04:35:00,
2013-03-16 23:40:00,25.9,21.4,30.08,ENE,67,4.0,8.0,83,0.00,,,0.00,0,Wunderground v.1.15,2013-03-17 04:40:00,
2013-03-16 23:45:00,25.9,21.4,30.08,ENE,68,12.0,17.0,83,0.00,,,0.00,0,Wunderground v.1.15,2013-03-17 04:45:00,
2013-03-16 23:50:00,25.9,21.7,30.08,ENE,60,7.0,9.0,84,0.00,,,0.00,0,Wunderground v.1.15,2013-03-17 04:50:00,
2013-03-16 23:55:00,25.8,21.6,30.07,ENE,65,11.0,13.0,84,0.00,,,0.00,0,Wunderground v.1.15,2013-03-17 04:55:00,